Time;durP1;ratioP1;P1;durP2;ratioP2;P2;SDS_P1;SDS_P2;PMS_P1;PMS_P2;Temp;Humidity;BMP_temperature;BMP_pressure;BME280_temperature;BME280_humidity;BME280_pressure;Samples;Min_cycle;Max_cycle;Signal;HPM_P1;HPM_P2
2022/02/06 00:02:21;;;;;;;3.03;1.80;;;5.40;99.90;;;6.40;81.63;-19944.78;5070682;28;20280;-64
2022/02/06 00:04:50;;;;;;;3.27;2.20;;;5.50;99.90;;;6.42;81.85;-19945.47;5069813;28;20260;-65
2022/02/06 00:07:19;;;;;;;2.70;1.90;;;5.50;99.90;;;6.38;81.92;-19943.94;5069855;28;20224;-65
2022/02/06 00:09:48;;;;;;;5.33;1.90;;;5.50;99.90;;;6.25;81.94;-19939.47;5069439;28;20703;-66
2022/02/06 00:12:33;;;;;;;3.23;1.90;;;5.50;99.90;;;6.34;81.41;-19942.72;5070179;28;20236;-65
2022/02/06 00:15:01;;;;;;;6.23;2.10;;;5.50;99.90;;;6.32;83.33;-19941.88;5069763;28;20252;-64
2022/02/06 00:17:30;;;;;;;2.93;2.00;;;5.50;99.90;;;6.31;83.83;-19941.69;5070280;28;20548;-64
2022/02/06 00:19:59;;;;;;;3.40;2.10;;;5.50;99.90;;;6.25;83.86;-19939.66;5069821;28;20215;-65
2022/02/06 00:22:34;;;;;;;4.30;2.10;;;5.40;99.90;;;6.16;86.19;-19936.75;5069803;28;20719;-64
2022/02/06 00:25:18;;;;;;;3.93;2.00;;;5.40;99.90;;;6.12;86.66;-19935.38;5069329;28;20230;-65
2022/02/06 00:30:39;;;;;;;4.43;2.00;;;5.40;99.90;;;5.81;91.53;-19924.59;5064669;28;20281;-65
2022/02/06 00:33:11;;;;;;;3.67;2.00;;;5.30;99.90;;;5.71;93.04;-19921.19;5070169;28;20259;-66
2022/02/06 00:35:59;;;;;;;3.80;1.60;;;5.20;99.90;;;5.64;96.01;-19918.78;5073549;28;20185;-65
2022/02/06 00:38:35;;;;;;;2.90;1.70;;;5.10;99.90;;;5.77;96.12;-19923.25;5074161;28;20200;-64
2022/02/06 00:41:14;;;;;;;2.73;1.80;;;5.10;99.90;;;5.76;98.49;-19923.06;5073711;28;20235;-65
2022/02/06 00:43:43;;;;;;;3.63;1.70;;;5.10;99.90;;;5.68;97.22;-19920.16;5073796;28;20254;-65
2022/02/06 00:46:13;;;;;;;3.13;2.03;;;5.00;99.90;;;5.68;99.95;-19920.34;5073552;28;20235;-66
2022/02/06 00:48:49;;;;;;;5.53;1.90;;;5.00;99.90;;;5.55;100.00;-19915.72;5073578;28;20236;-66
2022/02/06 00:51:25;;;;;;;3.70;1.60;;;4.90;99.90;;;5.49;100.00;-19913.66;5073368;28;20284;-65
2022/02/06 00:53:55;;;;;;;5.80;2.60;;;4.90;99.90;;;5.60;100.00;-19917.59;5073291;28;20297;-65
2022/02/06 00:56:23;;;;;;;3.37;2.03;;;4.90;99.90;;;5.73;100.00;-19921.88;5073461;28;20244;-65
2022/02/06 00:58:51;;;;;;;4.70;2.20;;;4.90;99.90;;;5.77;100.00;-19923.41;5073109;28;20707;-65
2022/02/06 01:01:19;;;;;;;3.20;2.00;;;5.00;99.90;;;5.61;100.00;-19917.94;5073003;28;20227;-65
2022/02/06 01:03:47;;;;;;;5.77;2.30;;;4.90;99.90;;;5.55;100.00;-19915.72;5073029;28;20762;-64
2022/02/06 01:06:15;;;;;;;4.10;2.00;;;4.90;99.90;;;5.51;100.00;-19914.34;5072915;28;20307;-65
2022/02/06 01:08:44;;;;;;;4.27;2.67;;;4.80;99.90;;;5.51;100.00;-19914.53;5073438;28;20329;-64
2022/02/06 01:11:13;;;;;;;3.87;1.87;;;4.80;99.90;;;5.54;100.00;-19915.56;5088644;28;20203;-69
2022/02/06 01:13:57;;;;;;;5.20;2.40;;;4.80;99.90;;;5.44;100.00;-19911.97;5093204;28;20321;-67
2022/02/06 01:16:29;;;;;;;3.20;1.77;;;4.80;99.90;;;5.37;100.00;-19909.56;5093226;28;20313;-65
2022/02/06 01:19:01;;;;;;;2.53;1.70;;;4.70;99.90;;;5.33;100.00;-19908.19;5074518;28;20262;-67
2022/02/06 01:21:45;;;;;;;4.33;1.90;;;4.70;99.90;;;5.36;100.00;-19909.41;5072907;28;20239;-68
2022/02/06 01:24:17;;;;;;;6.03;2.40;;;4.60;99.90;;;5.32;100.00;-19907.84;5072708;28;20251;-67
2022/02/06 01:26:52;;;;;;;5.03;2.00;;;4.60;99.90;;;5.30;100.00;-19907.19;5072561;28;20561;-66
2022/02/06 01:29:32;;;;;;;4.17;2.33;;;4.60;99.90;;;5.42;100.00;-19911.28;5073534;28;20278;-66
2022/02/06 01:32:04;;;;;;;5.27;2.07;;;4.60;99.90;;;5.26;100.00;-19905.97;5092265;28;20301;-66
2022/02/06 01:34:40;;;;;;;4.90;2.33;;;4.60;99.90;;;5.41;100.00;-19911.09;5078162;28;20269;-67
2022/02/06 01:37:17;;;;;;;4.80;2.47;;;4.60;99.90;;;5.41;100.00;-19911.09;5084962;28;20261;-67
2022/02/06 01:40:06;;;;;;;3.17;2.07;;;4.60;99.90;;;5.35;100.00;-19908.88;5092466;28;20289;-66
2022/02/06 01:42:41;;;;;;;3.83;1.80;;;4.60;99.90;;;5.34;100.00;-19908.72;5092610;28;20310;-67
2022/02/06 01:45:26;;;;;;;4.07;2.00;;;4.50;99.90;;;5.38;100.00;-19909.91;5092137;28;20221;-67
2022/02/06 02:02:09;;;;;;;6.00;2.13;;;4.60;99.90;;;5.47;100.00;-19912.97;5091795;28;20308;-66
2022/02/06 02:04:48;;;;;;;4.10;2.30;;;4.60;99.90;;;5.39;100.00;-19910.25;5054712;28;20308;-67
2022/02/06 02:07:41;;;;;;;4.53;2.17;;;4.60;99.90;;;5.31;100.00;-19907.53;5065555;28;20250;-67
2022/02/06 02:16:18;;;;;;;3.50;2.30;;;4.60;99.90;;;5.32;100.00;-19907.84;5057691;28;20228;-66
2022/02/06 02:19:05;;;;;;;5.93;2.30;;;4.60;99.90;;;5.32;100.00;-19907.84;5070845;28;20249;-66
2022/02/06 02:27:20;;;;;;;5.40;2.00;;;4.70;99.90;;;5.64;100.00;-19918.97;5071279;28;20228;-66
2022/02/06 02:30:23;;;;;;;6.67;2.00;;;4.80;99.90;;;5.61;100.00;-19917.94;5071364;28;20187;-66
2022/02/06 02:33:35;;;;;;;4.37;2.40;;;4.80;99.90;;;5.84;100.00;-19925.63;5071275;28;20226;-67
2022/02/06 02:47:13;;;;;;;2.73;1.97;;;5.10;99.90;;;5.86;100.00;-19926.31;5090965;28;20763;-66
2022/02/06 02:49:49;;;;;;;3.53;1.90;;;5.10;99.90;;;5.92;100.00;-19928.53;5091448;28;20245;-67
2022/02/06 02:52:28;;;;;;;6.90;2.40;;;5.10;99.90;;;5.87;100.00;-19926.66;5091319;28;20628;-66
2022/02/06 02:55:13;;;;;;;4.93;2.27;;;5.10;99.90;;;5.85;100.00;-19925.97;5090778;28;20241;-66
2022/02/06 02:57:47;;;;;;;6.67;2.30;;;5.10;99.90;;;5.91;100.00;-19928.22;5090411;28;20250;-66
2022/02/06 03:00:40;;;;;;;4.53;2.30;;;5.10;99.90;;;5.85;100.00;-19925.97;5070944;28;20674;-66
2022/02/06 03:03:14;;;;;;;6.40;2.53;;;5.10;99.90;;;6.05;100.00;-19932.81;5092316;28;20226;-66
2022/02/06 03:05:42;;;;;;;3.83;1.97;;;5.20;99.90;;;6.05;100.00;-19932.97;5111335;28;20634;-68
2022/02/06 03:08:11;;;;;;;4.83;2.03;;;5.20;99.90;;;6.09;100.00;-19934.19;5111328;28;20191;-67
2022/02/06 03:10:42;;;;;;;4.63;2.07;;;5.20;99.90;;;5.99;100.00;-19930.75;5111270;27;20757;-67
2022/02/06 03:13:14;;;;;;;4.17;1.77;;;5.20;99.90;;;6.03;100.00;-19932.13;5111304;28;20553;-66
2022/02/06 03:15:46;;;;;;;3.37;1.73;;;5.20;99.90;;;6.06;100.00;-19933.34;5111466;28;20309;-67
2022/02/06 03:18:18;;;;;;;3.87;1.60;;;5.30;99.90;;;5.95;100.00;-19929.41;5098469;28;20221;-67
2022/02/06 03:20:47;;;;;;;6.30;1.80;;;5.20;99.90;;;5.98;100.00;-19930.44;5091014;28;20191;-66
2022/02/06 03:23:16;;;;;;;4.90;2.10;;;5.20;99.90;;;5.98;100.00;-19930.44;5091051;28;20294;-67
2022/02/06 03:25:50;;;;;;;3.90;2.03;;;5.20;99.90;;;5.95;100.00;-19929.41;5090572;28;20280;-66
2022/02/06 03:28:19;;;;;;;5.03;2.10;;;5.20;99.90;;;5.80;100.00;-19924.28;5090685;28;20309;-67
2022/02/06 03:30:48;;;;;;;3.23;2.03;;;5.20;99.90;;;5.84;100.00;-19925.81;5090605;28;20306;-67
2022/02/06 03:33:16;;;;;;;2.27;1.90;;;5.20;99.90;;;5.89;100.00;-19927.34;5090347;28;20284;-66
2022/02/06 03:35:46;;;;;;;6.50;2.30;;;5.20;99.90;;;5.92;100.00;-19928.38;5090989;28;20187;-66
2022/02/06 03:38:15;;;;;;;4.97;2.27;;;5.20;99.90;;;5.93;100.00;-19928.72;5090864;28;20234;-67
2022/02/06 03:40:52;;;;;;;6.20;2.00;;;5.20;99.90;;;5.89;100.00;-19927.53;5090372;28;20318;-68
2022/02/06 03:43:26;;;;;;;3.97;2.20;;;5.20;99.90;;;6.09;100.00;-19934.19;5090533;28;20314;-66
2022/02/06 03:45:58;;;;;;;2.17;1.53;;;5.20;99.90;;;6.06;100.00;-19933.16;5090633;28;20348;-68
2022/02/06 03:48:32;;;;;;;2.73;2.10;;;5.30;99.90;;;6.21;100.00;-19938.28;5090588;28;20277;-66
2022/02/06 03:51:05;;;;;;;3.77;1.87;;;5.30;99.90;;;6.13;100.00;-19935.56;5090640;28;20306;-67
2022/02/06 03:53:34;;;;;;;3.53;1.80;;;5.40;99.90;;;6.13;100.00;-19935.56;5090049;28;20204;-68
2022/02/06 03:56:04;;;;;;;4.30;1.97;;;5.40;99.90;;;6.26;100.00;-19939.81;5090311;28;20211;-66
2022/02/06 03:58:33;;;;;;;3.47;1.90;;;5.40;99.90;;;6.16;100.00;-19936.56;5093641;28;20647;-67
2022/02/06 04:01:01;;;;;;;3.53;2.10;;;5.40;99.90;;;6.19;100.00;-19937.78;5110697;28;20268;-66
2022/02/06 04:03:29;;;;;;;4.37;2.03;;;5.50;99.90;;;6.14;100.00;-19935.88;5110117;28;20234;-67
2022/02/06 04:05:57;;;;;;;4.30;1.80;;;5.40;99.90;;;6.27;100.00;-19940.34;5110221;28;20260;-66
2022/02/06 04:08:27;;;;;;;5.53;1.90;;;5.50;99.90;;;6.36;100.00;-19943.25;5113513;28;20237;-65
2022/02/06 04:10:57;;;;;;;3.97;1.90;;;5.50;99.90;;;6.33;100.00;-19942.22;5114684;28;20221;-67
2022/02/06 04:13:27;;;;;;;4.13;1.70;;;5.50;99.90;;;6.34;100.00;-19942.72;5114743;28;20301;-68
2022/02/06 04:15:59;;;;;;;3.27;1.97;;;5.50;99.90;;;6.38;100.00;-19943.94;5115151;28;20253;-66
2022/02/06 04:18:36;;;;;;;4.37;2.00;;;5.60;99.90;;;6.24;100.00;-19939.31;5100215;28;20319;-66
2022/02/06 04:21:06;;;;;;;5.50;1.90;;;5.50;99.90;;;6.42;100.00;-19945.47;5094297;28;20257;-66
2022/02/06 04:23:34;;;;;;;2.57;1.57;;;5.60;99.90;;;6.41;100.00;-19945.13;5094123;28;20747;-66
2022/02/06 04:26:02;;;;;;;2.53;1.50;;;5.60;99.90;;;6.43;100.00;-19945.63;5094265;28;20203;-66
2022/02/06 04:28:35;;;;;;;4.10;1.77;;;5.60;99.90;;;6.38;100.00;-19944.09;5094495;28;20284;-66
2022/02/06 04:31:04;;;;;;;4.00;1.90;;;5.60;99.90;;;6.52;100.00;-19948.72;5093829;28;20254;-67
2022/02/06 04:33:32;;;;;;;4.60;1.63;;;5.70;99.90;;;6.48;100.00;-19947.50;5093844;28;20243;-66
2022/02/06 04:36:05;;;;;;;3.70;1.50;;;5.70;99.90;;;6.61;100.00;-19951.78;5093840;28;20231;-66
2022/02/06 04:38:50;;;;;;;3.10;1.50;;;5.70;99.90;;;6.44;100.00;-19945.97;5093816;28;20234;-67
2022/02/06 05:12:31;;;;;;;1.60;0.90;;;5.90;99.90;;;6.59;100.00;-19951.28;5093151;28;20223;-67
2022/02/06 05:15:07;;;;;;;1.97;1.37;;;5.90;99.90;;;6.57;100.00;-19950.41;5092976;28;20220;-67
2022/02/06 05:18:05;;;;;;;2.40;1.23;;;5.80;99.90;;;6.63;100.00;-19952.63;5086630;28;20288;-67
2022/02/06 05:28:57;;;;;;;1.50;1.03;;;5.80;99.90;;;6.72;100.00;-19955.72;5092067;28;20311;-67
2022/02/06 05:31:36;;;;;;;1.90;0.93;;;5.90;99.90;;;6.83;100.00;-19959.47;5092768;28;20313;-66
2022/02/06 05:34:05;;;;;;;2.60;1.00;;;6.00;99.90;;;6.70;100.00;-19954.84;5092847;28;20223;-67
2022/02/06 05:36:34;;;;;;;2.37;1.10;;;6.00;99.90;;;6.78;100.00;-19957.59;5092906;28;20319;-67
2022/02/06 05:39:03;;;;;;;2.23;1.27;;;6.00;99.90;;;6.75;100.00;-19956.56;5092500;28;20311;-66
2022/02/06 05:41:31;;;;;;;2.57;1.37;;;6.00;99.90;;;6.61;100.00;-19951.78;5093292;28;20290;-67
2022/02/06 05:43:59;;;;;;;2.67;1.10;;;5.90;99.90;;;6.65;100.00;-19953.31;5092860;28;20610;-67
2022/02/06 05:46:27;;;;;;;1.70;1.00;;;5.90;99.90;;;6.67;100.00;-19953.84;5092405;28;20224;-67
2022/02/06 05:48:55;;;;;;;2.10;1.10;;;5.90;99.90;;;6.60;100.00;-19951.63;5092281;28;20223;-66
2022/02/06 05:51:25;;;;;;;1.83;0.90;;;5.90;99.90;;;6.59;100.00;-19951.09;5098856;28;20754;-68
2022/02/06 05:53:54;;;;;;;1.63;1.10;;;5.80;99.90;;;6.63;100.00;-19952.63;5113042;28;20293;-65
2022/02/06 05:56:23;;;;;;;1.57;1.30;;;5.90;99.90;;;6.72;100.00;-19955.53;5112763;28;20319;-67
2022/02/06 05:58:51;;;;;;;2.40;1.20;;;5.90;99.90;;;6.65;100.00;-19953.16;5112625;28;20247;-67
2022/02/06 06:01:19;;;;;;;1.20;1.10;;;5.80;99.90;;;6.56;100.00;-19950.09;5112712;28;20306;-66
2022/02/06 06:03:48;;;;;;;1.30;1.17;;;5.80;99.90;;;6.55;100.00;-19949.72;5113120;28;20230;-67
2022/02/06 06:06:17;;;;;;;0.90;0.90;;;5.80;99.90;;;6.62;100.00;-19952.13;5112869;28;20265;-66
2022/02/06 06:08:46;;;;;;;3.63;1.03;;;5.80;99.90;;;6.56;100.00;-19950.25;5112435;28;20738;-67
2022/02/06 06:11:14;;;;;;;2.17;1.00;;;5.80;99.90;;;6.58;100.00;-19950.94;5113228;28;20230;-67
2022/02/06 06:13:42;;;;;;;1.57;1.10;;;5.80;99.90;;;6.77;100.00;-19957.44;5112530;28;20670;-67
2022/02/06 06:16:10;;;;;;;2.30;1.03;;;5.90;99.90;;;6.69;100.00;-19954.69;5112313;28;20342;-65
2022/02/06 06:18:38;;;;;;;1.03;0.93;;;5.90;99.90;;;6.69;100.00;-19954.53;5096266;28;20227;-67
2022/02/06 06:21:06;;;;;;;2.17;1.10;;;5.90;99.90;;;6.72;100.00;-19955.53;5091780;28;20312;-66
2022/02/06 06:23:42;;;;;;;1.40;1.00;;;5.90;99.90;;;6.69;100.00;-19954.53;5091905;28;20302;-66
2022/02/06 06:26:15;;;;;;;1.03;1.00;;;5.90;99.90;;;6.85;100.00;-19960.00;5092256;28;20275;-67
2022/02/06 06:28:44;;;;;;;1.50;1.00;;;6.00;99.90;;;6.96;100.00;-19963.91;5091757;28;20270;-67
2022/02/06 06:31:12;;;;;;;2.83;1.23;;;6.10;99.90;;;6.91;100.00;-19962.22;5091669;28;20346;-67
2022/02/06 06:33:40;;;;;;;3.10;1.10;;;6.10;99.90;;;6.85;100.00;-19960.16;5091363;28;20223;-68
2022/02/06 06:36:09;;;;;;;1.33;1.20;;;6.10;99.90;;;6.77;100.00;-19957.44;5091475;28;20258;-67
2022/02/06 06:38:37;;;;;;;1.17;1.00;;;6.10;99.90;;;7.00;100.00;-19965.13;5091709;28;20207;-67
2022/02/06 06:41:06;;;;;;;3.33;1.20;;;6.10;99.90;;;6.98;100.00;-19964.59;5092137;28;20250;-68
2022/02/06 06:43:35;;;;;;;2.00;1.20;;;6.10;99.90;;;7.02;100.00;-19965.97;5091505;28;20713;-66
2022/02/06 06:46:04;;;;;;;1.23;1.10;;;6.20;99.90;;;6.96;100.00;-19963.91;5091641;28;20234;-67
2022/02/06 06:48:36;;;;;;;2.50;1.37;;;6.20;99.90;;;6.99;100.00;-19964.78;5106443;28;20231;-67
2022/02/06 06:51:05;;;;;;;2.70;1.37;;;6.20;99.90;;;6.95;100.00;-19963.41;5112194;28;20229;-67
2022/02/06 06:53:34;;;;;;;2.13;1.30;;;6.20;99.90;;;7.03;100.00;-19966.16;5111523;28;20297;-66
2022/02/06 06:56:08;;;;;;;2.83;1.50;;;6.20;99.90;;;7.13;100.00;-19969.56;5112168;28;20222;-68
2022/02/06 06:58:42;;;;;;;1.43;1.20;;;6.20;99.90;;;7.02;100.00;-19965.97;5111912;28;20234;-67
2022/02/06 07:01:31;;;;;;;4.03;1.57;;;6.20;99.90;;;7.03;100.00;-19966.31;5111951;28;20226;-67
2022/02/06 07:04:00;;;;;;;2.17;1.50;;;6.20;99.90;;;6.99;100.00;-19964.94;5111748;28;20225;-68
2022/02/06 07:06:48;;;;;;;1.93;1.37;;;6.20;99.90;;;6.96;100.00;-19963.75;5111316;28;20222;-67
2022/02/06 07:09:16;;;;;;;3.23;1.43;;;6.20;99.90;;;7.07;100.00;-19967.50;5111667;28;20287;-68
2022/02/06 07:11:44;;;;;;;1.97;1.30;;;6.20;99.90;;;7.00;100.00;-19965.28;5111750;28;20686;-67
2022/02/06 07:14:13;;;;;;;2.87;1.70;;;6.20;99.90;;;7.04;100.00;-19966.66;5102637;28;20294;-69
2022/02/06 07:16:41;;;;;;;4.17;2.10;;;6.20;99.90;;;7.14;100.00;-19969.91;5090924;28;20312;-67
2022/02/06 07:19:09;;;;;;;2.00;1.50;;;6.30;99.90;;;7.11;100.00;-19969.03;5090977;28;20307;-67
2022/02/06 07:21:39;;;;;;;3.40;1.80;;;6.30;99.90;;;7.05;100.00;-19967.00;5091129;28;20311;-67
2022/02/06 07:24:08;;;;;;;3.60;1.43;;;6.30;99.90;;;7.14;100.00;-19969.91;5091247;28;20277;-67
2022/02/06 07:26:36;;;;;;;3.83;2.00;;;6.30;99.90;;;7.17;100.00;-19970.94;5091409;28;20231;-67
2022/02/06 07:29:04;;;;;;;2.47;1.57;;;6.30;99.90;;;7.21;100.00;-19972.28;5091733;28;20249;-67
2022/02/06 07:31:38;;;;;;;3.00;1.60;;;6.40;99.90;;;7.26;100.00;-19974.19;5091143;28;20261;-66
2022/02/06 07:34:06;;;;;;;2.00;1.70;;;6.50;99.90;;;7.38;100.00;-19978.28;5090936;28;20253;-67
2022/02/06 07:36:34;;;;;;;3.50;1.50;;;6.50;99.90;;;7.55;100.00;-19983.75;5090956;28;20231;-67
2022/02/06 07:39:04;;;;;;;3.93;1.60;;;6.60;99.90;;;7.46;100.00;-19980.84;5090535;28;20718;-67
2022/02/06 07:41:32;;;;;;;2.20;1.70;;;6.60;99.90;;;7.50;100.00;-19982.19;5090839;28;20211;-67
2022/02/06 07:44:00;;;;;;;3.20;1.40;;;6.60;99.90;;;7.53;100.00;-19983.22;5098112;28;20231;-66
2022/02/06 07:46:37;;;;;;;3.60;1.40;;;6.70;99.90;;;7.47;100.00;-19981.19;5111175;28;20238;-67
2022/02/06 07:49:06;;;;;;;3.30;1.60;;;6.60;99.90;;;7.49;100.00;-19981.88;5110631;28;20250;-66
2022/02/06 07:51:35;;;;;;;2.37;1.67;;;6.70;99.90;;;7.41;100.00;-19979.13;5110792;28;20257;-68
2022/02/06 07:54:03;;;;;;;1.23;1.10;;;6.60;99.90;;;7.43;100.00;-19979.97;5110480;28;20309;-67
2022/02/06 07:56:32;;;;;;;1.83;1.20;;;6.60;99.90;;;7.56;100.00;-19984.09;5111588;28;20222;-67
2022/02/06 07:59:00;;;;;;;1.83;1.20;;;6.60;99.90;;;7.54;100.00;-19983.56;5110797;28;20511;-68
2022/02/06 08:01:28;;;;;;;2.23;1.40;;;6.70;99.90;;;7.53;100.00;-19983.06;5110922;28;20226;-67
2022/02/06 08:03:56;;;;;;;1.43;1.20;;;6.70;99.90;;;7.52;100.00;-19982.72;5110912;28;20310;-67
2022/02/06 08:06:26;;;;;;;2.27;1.67;;;6.70;99.90;;;7.63;100.00;-19986.47;5110937;28;20258;-67
2022/02/06 08:08:54;;;;;;;2.03;1.70;;;6.70;99.90;;;7.56;100.00;-19984.25;5110529;28;20306;-67
2022/02/06 08:11:22;;;;;;;1.70;1.57;;;6.70;99.90;;;7.61;100.00;-19985.78;5094117;28;20690;-68
2022/02/06 08:13:53;;;;;;;1.10;1.00;;;6.80;99.90;;;7.72;100.00;-19989.56;5090363;28;20512;-68
2022/02/06 08:16:22;;;;;;;1.20;1.10;;;6.80;99.90;;;7.76;100.00;-19990.91;5090529;28;20692;-69
2022/02/06 08:18:50;;;;;;;1.10;1.00;;;6.80;99.90;;;7.61;100.00;-19985.78;5090365;28;20339;-68
2022/02/06 08:21:18;;;;;;;1.73;1.43;;;6.80;99.90;;;7.81;100.00;-19992.63;5090347;28;20706;-67
2022/02/06 08:23:47;;;;;;;2.27;1.00;;;6.80;99.90;;;7.76;100.00;-19991.09;5090153;28;20196;-67
2022/02/06 08:26:16;;;;;;;1.50;1.10;;;6.90;99.90;;;7.79;100.00;-19992.13;5090657;28;20206;-67
2022/02/06 08:28:45;;;;;;;1.07;0.97;;;6.90;99.90;;;7.85;100.00;-19994.16;5090329;28;20277;-67
2022/02/06 08:31:14;;;;;;;3.53;0.97;;;6.90;99.90;;;7.80;100.00;-19992.28;5087270;28;20281;-68
2022/02/06 08:33:42;;;;;;;2.33;1.20;;;6.90;99.90;;;7.91;100.00;-19996.22;5088168;28;20232;-69
2022/02/06 08:36:09;;;;;;;1.33;1.00;;;6.90;99.90;;;7.92;100.00;-19996.38;5090218;28;20220;-67
2022/02/06 08:38:59;;;;;;;1.00;0.80;;;7.00;99.90;;;7.83;100.00;-19993.47;5090121;28;20223;-68
2022/02/06 08:41:27;;;;;;;1.80;1.10;;;6.90;99.90;;;7.79;100.00;-19992.13;5094022;28;20220;-67
2022/02/06 08:43:57;;;;;;;2.80;1.37;;;6.90;99.90;;;7.90;100.00;-19995.72;5089212;28;20224;-67
2022/02/06 08:46:25;;;;;;;2.60;1.40;;;7.10;99.90;;;8.02;100.00;-19999.81;5090211;28;20711;-68
2022/02/06 08:48:53;;;;;;;1.90;1.43;;;7.00;99.90;;;7.92;100.00;-19996.38;5089966;28;20327;-68
2022/02/06 08:51:21;;;;;;;1.90;1.30;;;7.00;99.90;;;8.04;100.00;-20000.47;5082676;28;20253;-67
2022/02/06 08:53:52;;;;;;;2.27;1.43;;;7.10;99.90;;;8.04;100.00;-20000.47;5090100;28;20287;-67
2022/02/06 08:56:26;;;;;;;2.07;1.57;;;7.00;99.90;;;8.09;100.00;-20002.19;5094419;28;20262;-67
2022/02/06 08:58:55;;;;;;;1.37;0.90;;;7.10;99.90;;;8.15;100.00;-20004.25;5093734;28;20226;-67
2022/02/06 09:01:23;;;;;;;1.70;1.00;;;7.20;99.90;;;8.17;100.00;-20004.94;5093443;28;20715;-66
2022/02/06 09:03:51;;;;;;;1.73;1.10;;;7.30;99.90;;;8.15;100.00;-20004.25;5093596;28;20227;-68
2022/02/06 09:06:19;;;;;;;1.67;1.30;;;7.20;99.90;;;8.23;100.00;-20007.16;5093372;28;20656;-68
2022/02/06 09:08:53;;;;;;;2.83;1.30;;;7.20;99.90;;;8.07;100.00;-20001.50;5093183;28;20659;-67
2022/02/06 09:11:24;;;;;;;1.10;1.00;;;7.20;99.90;;;8.08;100.00;-20002.03;5092659;28;20283;-69
2022/02/06 09:13:52;;;;;;;1.97;1.13;;;7.20;99.90;;;8.06;100.00;-20001.16;5093262;28;20261;-68
2022/02/06 09:16:22;;;;;;;1.40;1.07;;;7.30;99.90;;;8.08;100.00;-20001.84;5093224;28;20255;-68
2022/02/06 09:18:51;;;;;;;2.30;1.20;;;7.30;99.90;;;8.28;100.00;-20008.88;5092581;28;20226;-67
2022/02/06 09:21:21;;;;;;;1.37;1.20;;;7.30;99.90;;;8.25;100.00;-20007.84;5093094;28;20653;-68
2022/02/06 09:23:49;;;;;;;2.30;1.10;;;7.40;99.90;;;8.36;100.00;-20011.59;5093182;28;20290;-67
2022/02/06 09:26:17;;;;;;;5.07;1.33;;;7.40;99.90;;;8.36;100.00;-20011.44;5094191;28;20281;-67
2022/02/06 09:28:46;;;;;;;3.00;1.37;;;7.40;99.90;;;8.36;100.00;-20011.59;5093192;28;20238;-68
2022/02/06 09:31:14;;;;;;;1.37;1.20;;;7.40;99.90;;;8.40;100.00;-20012.78;5093163;28;20315;-68
2022/02/06 09:36:09;;;;;;;1.23;1.00;;;7.40;99.90;;;8.39;100.00;-20012.44;5092963;28;20227;-67
2022/02/06 09:38:37;;;;;;;1.80;1.03;;;7.40;99.90;;;8.43;100.00;-20014.00;5093462;28;20266;-68
2022/02/06 09:41:06;;;;;;;1.20;1.00;;;7.50;99.90;;;8.51;100.00;-20016.56;5093331;28;20728;-68
2022/02/06 09:43:34;;;;;;;1.60;0.90;;;7.40;99.90;;;8.50;100.00;-20016.38;5092976;28;20331;-68
2022/02/06 09:46:05;;;;;;;1.53;1.10;;;7.60;99.90;;;8.62;100.00;-20020.47;5092834;28;20255;-68
2022/02/06 09:48:33;;;;;;;1.60;0.90;;;7.60;99.90;;;8.53;100.00;-20017.41;5093185;28;20231;-68
2022/02/06 09:51:02;;;;;;;1.60;0.90;;;7.60;99.90;;;8.51;100.00;-20016.72;5092058;28;20596;-67
2022/02/06 09:53:31;;;;;;;1.10;0.90;;;7.50;99.90;;;8.52;100.00;-20017.06;5093806;28;20287;-68
2022/02/06 09:56:02;;;;;;;1.73;0.80;;;7.60;99.90;;;8.54;100.00;-20017.75;5092257;28;20291;-68
2022/02/06 09:58:57;;;;;;;1.43;0.90;;;7.60;99.90;;;8.84;100.00;-20027.84;5092853;28;20254;-69
2022/02/06 10:01:33;;;;;;;2.70;1.00;;;7.70;99.90;;;8.86;100.00;-20028.50;5093002;28;20235;-69
2022/02/06 10:04:06;;;;;;;1.43;0.90;;;7.90;99.90;;;8.93;100.00;-20030.72;5092815;28;20285;-68
2022/02/06 10:06:45;;;;;;;3.17;0.80;;;8.00;99.90;;;8.98;100.00;-20032.59;5092059;28;20647;-68
2022/02/06 10:09:19;;;;;;;1.97;1.00;;;8.00;99.90;;;9.24;99.04;-20041.50;5092522;28;20219;-68
2022/02/06 10:11:53;;;;;;;1.77;0.80;;;8.10;99.90;;;9.20;98.64;-20039.97;5092638;28;20256;-69
2022/02/06 10:14:22;;;;;;;1.53;0.90;;;8.20;99.90;;;9.32;98.33;-20044.22;5093085;28;20195;-68
2022/02/06 10:16:53;;;;;;;1.53;0.70;;;8.30;99.90;;;9.38;97.91;-20046.09;5092229;28;20262;-68
2022/02/06 10:19:21;;;;;;;1.20;0.90;;;8.30;99.90;;;9.14;99.17;-20038.06;5092629;28;20266;-68
2022/02/06 10:21:49;;;;;;;1.30;1.10;;;8.20;99.90;;;9.01;99.15;-20033.63;5092559;28;20310;-68
2022/02/06 10:24:28;;;;;;;1.37;1.00;;;8.20;99.90;;;9.10;99.38;-20036.72;5092411;28;20232;-67
2022/02/06 10:27:17;;;;;;;1.13;0.70;;;8.20;99.90;;;9.02;99.40;-20033.97;5092057;28;20249;-67
2022/02/06 10:29:51;;;;;;;2.03;0.87;;;8.10;99.90;;;9.04;99.86;-20034.66;5091822;28;20228;-68
2022/02/06 10:32:21;;;;;;;2.87;1.03;;;8.10;99.90;;;9.16;99.00;-20038.59;5096162;28;20674;-68
2022/02/06 10:34:49;;;;;;;2.00;0.80;;;8.10;99.90;;;9.13;98.50;-20037.56;5095939;28;20281;-68
2022/02/06 10:37:20;;;;;;;0.90;0.70;;;8.20;99.90;;;9.12;99.16;-20037.41;5092426;28;20228;-68
2022/02/06 10:39:58;;;;;;;1.63;0.73;;;8.20;99.90;;;9.29;98.83;-20043.19;5091959;28;20306;-68
2022/02/06 10:42:32;;;;;;;0.70;0.70;;;8.30;99.90;;;9.20;98.70;-20039.97;5092060;28;20251;-68
2022/02/06 10:45:17;;;;;;;2.53;0.83;;;8.30;99.90;;;9.42;97.64;-20047.66;5092152;28;20239;-67
2022/02/06 10:47:49;;;;;;;0.80;0.80;;;8.40;99.90;;;9.61;96.60;-20054.13;5092004;28;20201;-67
2022/02/06 10:50:20;;;;;;;0.80;0.70;;;8.40;99.90;;;9.54;96.21;-20051.75;5092171;28;20235;-67
2022/02/06 10:52:49;;;;;;;2.33;0.80;;;8.50;99.90;;;9.59;95.29;-20053.28;5091642;28;20251;-68
2022/02/06 10:55:21;;;;;;;1.33;0.90;;;8.60;99.90;;;9.50;96.43;-20050.38;5091166;28;20263;-68
2022/02/06 10:57:59;;;;;;;0.70;0.70;;;8.50;99.90;;;9.52;96.25;-20051.06;5091633;28;20289;-67
2022/02/06 11:00:29;;;;;;;2.03;0.90;;;8.50;99.90;;;9.45;97.86;-20048.66;5091661;28;20227;-68
2022/02/06 11:03:03;;;;;;;0.83;0.60;;;8.40;99.90;;;9.40;97.20;-20046.97;5091711;28;20314;-67
2022/02/06 11:05:48;;;;;;;1.43;0.90;;;8.40;99.90;;;9.42;96.82;-20047.47;5091561;28;20284;-67
2022/02/06 11:08:28;;;;;;;1.47;0.80;;;8.40;99.90;;;9.25;98.24;-20041.66;5091498;28;20215;-68
2022/02/06 11:10:58;;;;;;;0.80;0.70;;;8.40;99.90;;;9.11;97.55;-20036.88;5091105;28;20235;-69
2022/02/06 11:13:27;;;;;;;1.53;0.80;;;8.30;99.90;;;9.06;98.46;-20035.19;5091550;28;20711;-70
2022/02/06 11:15:58;;;;;;;1.30;0.80;;;8.20;99.90;;;9.06;98.00;-20035.19;5091152;28;20227;-68
2022/02/06 11:18:32;;;;;;;0.80;0.80;;;8.20;99.90;;;9.08;99.51;-20036.03;5090368;28;20638;-67
2022/02/06 11:21:03;;;;;;;1.33;0.70;;;8.20;99.90;;;9.14;98.99;-20038.06;5091173;28;20222;-70
2022/02/06 11:23:51;;;;;;;0.80;0.80;;;8.20;99.90;;;9.10;98.76;-20036.72;5092314;28;20211;-69
2022/02/06 11:26:23;;;;;;;0.93;0.80;;;8.20;99.90;;;9.03;99.66;-20034.16;5090279;28;20675;-68
2022/02/06 11:28:54;;;;;;;0.73;0.73;;;8.20;99.90;;;8.94;98.61;-20031.06;5097222;28;20700;-67
2022/02/06 11:31:24;;;;;;;2.27;0.97;;;8.10;99.90;;;8.95;99.36;-20031.59;5111229;28;20310;-68
2022/02/06 11:33:54;;;;;;;0.90;0.80;;;8.10;99.90;;;9.05;99.57;-20035.00;5102838;28;20227;-68
2022/02/06 11:45:28;;;;;;;1.00;0.70;;;8.10;99.90;;;8.96;99.90;-20031.75;5091133;28;20285;-67
2022/02/06 11:48:03;;;;;;;0.70;0.60;;;8.10;99.90;;;8.93;100.00;-20030.72;5090639;28;20250;-67
2022/02/06 11:50:37;;;;;;;1.20;0.77;;;8.00;99.90;;;9.06;100.00;-20035.34;5091643;28;20194;-68
2022/02/06 11:53:09;;;;;;;1.30;0.90;;;8.10;99.90;;;8.94;100.00;-20031.25;5090972;28;20265;-68
2022/02/06 11:55:42;;;;;;;1.20;0.80;;;8.10;99.90;;;8.85;100.00;-20028.00;5088218;28;20276;-68
2022/02/06 11:58:27;;;;;;;0.90;0.80;;;8.10;99.90;;;8.97;100.00;-20032.09;5089335;28;20580;-68
2022/02/06 12:01:29;;;;;;;1.07;0.87;;;8.10;99.90;;;8.97;100.00;-20032.28;5089892;28;20220;-68
2022/02/06 12:04:05;;;;;;;1.30;0.90;;;8.10;99.90;;;9.01;100.00;-20033.47;5083526;28;20231;-69
2022/02/06 12:06:56;;;;;;;2.23;1.60;;;8.10;99.90;;;8.86;100.00;-20028.50;5090569;28;20318;-69
2022/02/06 12:09:29;;;;;;;1.53;0.87;;;8.00;99.90;;;8.87;100.00;-20028.69;5070459;28;20255;-68
2022/02/06 12:12:12;;;;;;;1.47;1.07;;;8.00;99.90;;;8.93;100.00;-20030.72;5080103;28;20223;-68
2022/02/06 12:14:47;;;;;;;1.00;0.70;;;8.00;99.90;;;8.83;100.00;-20027.47;5090568;28;20213;-68